createdAt,value
2018-05-23T00:00:17.218Z,6.67
2018-05-23T00:02:43.811Z,6.03
2018-05-23T00:05:10.441Z,6.33
2018-05-23T00:07:37.008Z,6.53
2018-05-23T00:10:03.667Z,6.10
2018-05-23T00:12:30.240Z,6.17
2018-05-23T00:14:56.859Z,6.23
2018-05-23T00:17:23.470Z,6.60
2018-05-23T00:19:50.087Z,6.13
2018-05-23T00:22:16.718Z,6.57
2018-05-23T00:24:43.337Z,6.50
2018-05-23T00:27:09.944Z,5.67
2018-05-23T00:29:36.577Z,6.30
2018-05-23T00:32:03.193Z,6.80
2018-05-23T00:34:29.776Z,7.30
2018-05-23T00:36:56.384Z,7.20
2018-05-23T00:39:23.004Z,7.47
2018-05-23T00:41:49.826Z,7.27
2018-05-23T00:44:16.603Z,7.33
2018-05-23T00:46:43.216Z,7.30
2018-05-23T00:49:09.811Z,7.27
2018-05-23T00:51:36.601Z,7.43
2018-05-23T00:54:03.327Z,6.60
2018-05-23T00:56:29.935Z,7.30
2018-05-23T00:58:56.572Z,6.53
2018-05-23T01:01:23.188Z,6.97
2018-05-23T01:03:49.792Z,7.40
2018-05-23T01:06:16.392Z,7.20
2018-05-23T01:08:43.004Z,6.90
2018-05-23T01:11:09.608Z,7.30
2018-05-23T01:13:36.242Z,8.10
2018-05-23T01:16:02.843Z,7.20
2018-05-23T01:18:29.437Z,7.60
2018-05-23T01:20:56.093Z,7.03
2018-05-23T01:23:22.694Z,7.73
2018-05-23T01:25:49.273Z,7.23
2018-05-23T01:28:15.890Z,7.57
2018-05-23T01:30:42.484Z,7.00
2018-05-23T01:33:09.101Z,7.30
2018-05-23T01:35:35.710Z,6.93
2018-05-23T01:38:02.599Z,5.87
2018-05-23T01:40:29.178Z,6.40
2018-05-23T01:42:55.775Z,6.20
2018-05-23T01:45:22.516Z,6.40
2018-05-23T01:47:49.353Z,7.20
2018-05-23T01:50:15.974Z,6.70
2018-05-23T01:52:42.556Z,6.27
2018-05-23T01:55:09.150Z,6.93
2018-05-23T01:57:35.756Z,6.77
2018-05-23T02:00:02.371Z,7.23
2018-05-23T02:02:28.957Z,6.90
2018-05-23T02:04:55.552Z,7.10
2018-05-23T02:07:22.163Z,6.40
2018-05-23T02:09:48.776Z,6.40
2018-05-23T02:12:15.361Z,6.90
2018-05-23T02:14:41.979Z,7.10
2018-05-23T02:17:08.583Z,6.30
2018-05-23T02:19:35.326Z,6.47
2018-05-23T02:22:01.916Z,6.57
2018-05-23T02:24:28.516Z,6.80
2018-05-23T02:26:55.135Z,6.30
2018-05-23T02:29:21.706Z,6.40
2018-05-23T02:31:48.305Z,6.23
2018-05-23T02:34:14.886Z,6.73
2018-05-23T02:36:41.527Z,6.30
2018-05-23T02:39:08.132Z,6.17
2018-05-23T02:41:34.746Z,6.73
2018-05-23T02:44:01.306Z,6.80
2018-05-23T02:46:27.946Z,6.57
2018-05-23T02:48:54.695Z,5.63
2018-05-23T02:51:21.294Z,6.27
2018-05-23T02:53:47.866Z,6.50
2018-05-23T02:56:14.553Z,6.60
2018-05-23T02:58:41.133Z,6.20
2018-05-23T03:01:07.782Z,6.70
2018-05-23T03:03:34.385Z,7.20
2018-05-23T03:06:00.959Z,6.83
2018-05-23T03:08:27.830Z,6.60
2018-05-23T03:10:54.406Z,7.40
2018-05-23T03:13:21.198Z,7.10
2018-05-23T03:15:47.788Z,7.50
2018-05-23T03:18:14.399Z,7.07
2018-05-23T03:20:40.986Z,7.33
2018-05-23T03:23:07.604Z,6.63
2018-05-23T03:25:34.203Z,7.43
2018-05-23T03:28:00.819Z,6.90
2018-05-23T03:30:27.433Z,7.53
2018-05-23T03:32:54.037Z,6.70
2018-05-23T03:35:20.618Z,6.87
2018-05-23T03:37:47.220Z,7.17
2018-05-23T03:40:13.810Z,6.93
2018-05-23T03:42:40.410Z,6.90
2018-05-23T03:45:07.071Z,7.37
2018-05-23T03:47:33.680Z,6.70
2018-05-23T03:50:00.345Z,7.10
2018-05-23T03:52:26.995Z,7.00
2018-05-23T03:54:53.609Z,6.47
2018-05-23T03:57:20.306Z,7.80
2018-05-23T03:59:52.922Z,7.53
2018-05-23T04:02:25.305Z,7.40
2018-05-23T04:04:57.860Z,7.57
2018-05-23T04:07:30.363Z,7.80
2018-05-23T04:09:56.978Z,7.80
2018-05-23T04:12:23.570Z,7.77
2018-05-23T04:14:50.196Z,7.20
2018-05-23T04:17:16.798Z,7.70
2018-05-23T04:19:43.425Z,7.60
2018-05-23T04:22:09.998Z,7.60
2018-05-23T04:24:36.615Z,7.60
2018-05-23T04:27:03.243Z,7.50
2018-05-23T04:29:29.816Z,7.77
2018-05-23T04:31:56.472Z,7.53
2018-05-23T04:34:23.160Z,7.57
2018-05-23T04:36:49.754Z,8.10
2018-05-23T04:39:16.464Z,7.93
2018-05-23T04:41:43.023Z,8.00
2018-05-23T04:44:09.608Z,7.30
2018-05-23T04:46:36.209Z,7.97
2018-05-23T04:49:02.849Z,7.90
2018-05-23T04:51:29.474Z,7.50
2018-05-23T04:53:56.188Z,7.70
2018-05-23T04:56:22.837Z,8.03
2018-05-23T04:58:49.440Z,8.20
2018-05-23T05:01:16.027Z,8.10
2018-05-23T05:03:42.642Z,8.77
2018-05-23T05:06:09.345Z,8.10
2018-05-23T05:08:36.142Z,8.17
2018-05-23T05:11:02.877Z,8.50
2018-05-23T05:13:29.459Z,8.50
2018-05-23T05:15:56.702Z,8.60
2018-05-23T05:18:23.312Z,8.50
2018-05-23T05:20:50.087Z,8.33
2018-05-23T05:23:17.103Z,8.40
2018-05-23T05:25:43.803Z,9.50
2018-05-23T05:28:10.416Z,9.13
2018-05-23T05:30:37.088Z,9.00
2018-05-23T05:33:03.692Z,8.80
2018-05-23T05:35:30.307Z,9.10
2018-05-23T05:37:56.931Z,10.40
2018-05-23T05:40:23.654Z,9.27
2018-05-23T05:42:50.281Z,9.87
2018-05-23T05:45:17.235Z,9.67
2018-05-23T05:47:44.017Z,9.20
2018-05-23T05:50:10.651Z,8.83
2018-05-23T05:52:37.394Z,9.03
2018-05-23T05:55:04.308Z,9.40
2018-05-23T05:57:31.129Z,9.20
2018-05-23T05:59:57.756Z,9.70
2018-05-23T06:02:24.383Z,9.37
2018-05-23T06:04:50.997Z,9.57
2018-05-23T06:07:17.588Z,9.40
2018-05-23T06:09:44.651Z,9.23
2018-05-23T06:12:11.549Z,10.13
2018-05-23T06:14:38.281Z,9.80
2018-05-23T06:17:04.926Z,9.80
2018-05-23T06:19:31.546Z,9.67
2018-05-23T06:21:58.232Z,10.10
2018-05-23T06:24:24.841Z,11.00
2018-05-23T06:26:51.487Z,10.27
2018-05-23T06:29:18.079Z,10.27
2018-05-23T06:31:44.711Z,11.30
2018-05-23T06:34:11.369Z,9.80
2018-05-23T06:36:37.983Z,10.47
2018-05-23T06:39:05.508Z,10.27
2018-05-23T06:41:32.603Z,10.30
2018-05-23T06:43:59.255Z,11.87
2018-05-23T06:46:25.896Z,10.53
2018-05-23T06:48:52.476Z,9.70
2018-05-23T06:51:19.134Z,9.97
2018-05-23T06:53:45.707Z,9.93
2018-05-23T06:56:12.320Z,9.30
2018-05-23T06:58:39.172Z,10.00
2018-05-23T07:01:05.754Z,10.20
2018-05-23T07:03:32.394Z,9.70
2018-05-23T07:05:59.042Z,10.13
2018-05-23T07:08:25.649Z,10.47
2018-05-23T07:10:52.262Z,9.77
2018-05-23T07:13:18.883Z,10.70
2018-05-23T07:15:45.579Z,10.40
2018-05-23T07:18:12.244Z,9.33
2018-05-23T07:20:38.827Z,9.73
2018-05-23T07:23:05.487Z,11.37
2018-05-23T07:25:32.104Z,11.30
2018-05-23T07:27:58.739Z,10.90
2018-05-23T07:30:25.359Z,10.90
2018-05-23T07:32:52.222Z,11.40
2018-05-23T07:35:18.840Z,12.13
2018-05-23T07:37:45.454Z,11.57
2018-05-23T07:40:12.394Z,11.80
2018-05-23T07:42:38.983Z,11.77
2018-05-23T07:45:05.630Z,11.80
2018-05-23T07:47:32.228Z,12.40
2018-05-23T07:49:58.834Z,13.93
2018-05-23T07:52:25.441Z,12.57
2018-05-23T07:54:52.046Z,12.63
2018-05-23T07:57:18.638Z,13.97
2018-05-23T07:59:45.272Z,13.87
2018-05-23T08:02:12.086Z,13.07
2018-05-23T08:04:38.690Z,12.43
2018-05-23T08:07:05.338Z,12.07
2018-05-23T08:09:31.936Z,12.30
2018-05-23T08:11:58.584Z,11.83
2018-05-23T08:14:25.190Z,11.40
2018-05-23T08:16:51.810Z,11.70
2018-05-23T08:19:18.403Z,11.70
2018-05-23T08:21:45.047Z,10.90
2018-05-23T08:24:11.650Z,10.50
2018-05-23T08:26:38.309Z,10.53
2018-05-23T08:29:04.927Z,9.90
2018-05-23T08:31:31.565Z,11.00
2018-05-23T08:33:58.170Z,9.67
2018-05-23T08:36:24.861Z,10.30
2018-05-23T08:38:51.392Z,10.00
2018-05-23T08:41:18.027Z,10.10
2018-05-23T08:43:44.972Z,10.27
2018-05-23T08:46:11.568Z,9.70
2018-05-23T08:48:38.191Z,8.60
2018-05-23T08:51:04.807Z,8.70
2018-05-23T08:53:31.449Z,8.63
2018-05-23T08:55:58.359Z,7.77
2018-05-23T08:58:25.085Z,7.20
2018-05-23T09:00:51.695Z,7.73
2018-05-23T09:03:18.304Z,8.10
2018-05-23T09:05:44.946Z,7.90
2018-05-23T09:08:11.591Z,7.97
2018-05-23T09:10:38.273Z,8.13
2018-05-23T09:13:05.031Z,8.27
2018-05-23T09:15:31.630Z,6.67
2018-05-23T09:17:58.245Z,6.60
2018-05-23T09:20:24.879Z,7.43
2018-05-23T09:22:51.522Z,6.80
2018-05-23T09:25:18.218Z,7.60
2018-05-23T09:27:44.722Z,7.37
2018-05-23T09:30:11.335Z,6.73
2018-05-23T09:32:37.954Z,7.33
2018-05-23T09:35:04.587Z,7.50
2018-05-23T09:37:31.202Z,8.20
2018-05-23T09:39:57.789Z,8.00
2018-05-23T09:42:24.451Z,8.00
2018-05-23T09:44:51.226Z,8.40
2018-05-23T09:47:17.813Z,7.67
2018-05-23T09:49:44.398Z,7.27
2018-05-23T09:52:11.042Z,7.37
2018-05-23T09:54:37.737Z,7.33
2018-05-23T09:57:04.348Z,8.03
2018-05-23T09:59:30.936Z,7.10
2018-05-23T10:01:57.592Z,7.50
2018-05-23T10:14:04.216Z,8.43
2018-05-23T10:16:30.905Z,7.93
2018-05-23T10:18:57.540Z,8.03
2018-05-23T10:21:24.100Z,8.30
2018-05-23T10:23:50.722Z,8.00
2018-05-23T10:26:17.386Z,8.37
2018-05-23T10:28:43.945Z,8.07
2018-05-23T10:31:10.574Z,7.67
2018-05-23T10:33:37.214Z,8.03
2018-05-23T10:36:03.786Z,7.63
2018-05-23T10:38:30.418Z,8.10
2018-05-23T10:40:57.032Z,7.87
2018-05-23T10:43:23.638Z,7.77
2018-05-23T10:45:50.230Z,8.20
2018-05-23T10:48:16.942Z,7.70
2018-05-23T10:50:43.526Z,8.00
2018-05-23T10:53:10.320Z,7.40
2018-05-23T10:55:36.938Z,7.80
2018-05-23T10:58:03.518Z,7.57
2018-05-23T11:00:30.132Z,7.53
2018-05-23T11:02:56.773Z,7.20
2018-05-23T11:05:23.400Z,8.67
2018-05-23T11:07:50.120Z,8.00
2018-05-23T11:10:16.723Z,7.30
2018-05-23T11:12:43.328Z,6.40
2018-05-23T11:15:10.017Z,6.43
2018-05-23T11:17:36.532Z,7.10
2018-05-23T11:20:03.298Z,6.73
2018-05-23T11:22:29.907Z,7.37
2018-05-23T11:24:56.510Z,7.97
2018-05-23T11:27:23.103Z,7.63
2018-05-23T11:29:49.769Z,7.37
2018-05-23T11:32:16.330Z,6.63
2018-05-23T11:34:42.934Z,7.30
2018-05-23T11:37:09.549Z,7.40
2018-05-23T11:39:36.158Z,6.57
2018-05-23T11:42:02.774Z,7.43
2018-05-23T11:44:29.366Z,6.70
2018-05-23T11:46:55.974Z,6.90
2018-05-23T11:49:22.561Z,6.13
2018-05-23T11:51:49.191Z,6.90
2018-05-23T11:54:16.623Z,6.63
2018-05-23T11:56:43.519Z,7.30
2018-05-23T11:59:10.132Z,7.20
2018-05-23T12:01:36.755Z,5.80
2018-05-23T12:04:03.407Z,6.60
2018-05-23T12:06:30.044Z,6.27
2018-05-23T12:08:56.620Z,5.70
2018-05-23T12:11:23.250Z,5.50
2018-05-23T12:13:49.872Z,5.90
2018-05-23T12:16:16.452Z,6.43
2018-05-23T12:18:43.164Z,6.10
2018-05-23T12:21:09.806Z,6.47
2018-05-23T12:23:36.594Z,6.00
2018-05-23T12:26:03.210Z,6.10
2018-05-23T12:28:30.769Z,6.70
2018-05-23T12:30:57.389Z,7.07
2018-05-23T12:33:24.228Z,6.93
2018-05-23T12:35:50.917Z,6.90
2018-05-23T12:38:17.525Z,6.37
2018-05-23T12:40:44.119Z,5.60
2018-05-23T12:43:13.241Z,6.20
2018-05-23T12:45:41.086Z,6.10
2018-05-23T12:48:07.815Z,6.30
2018-05-23T12:50:34.590Z,6.57
2018-05-23T12:53:01.247Z,5.57
2018-05-23T12:55:27.934Z,5.80
2018-05-23T12:57:54.525Z,5.70
2018-05-23T13:00:21.139Z,5.70
2018-05-23T13:02:47.811Z,6.07
2018-05-23T13:05:14.425Z,5.50
2018-05-23T13:07:41.068Z,5.70
2018-05-23T13:10:07.910Z,6.47
2018-05-23T13:12:34.866Z,5.70
2018-05-23T13:15:01.499Z,5.97
2018-05-23T13:17:28.118Z,5.40
2018-05-23T13:19:54.743Z,6.00
2018-05-23T13:22:21.442Z,5.43
2018-05-23T13:24:48.050Z,5.90
2018-05-23T13:27:14.687Z,5.57
2018-05-23T13:29:41.317Z,5.53
2018-05-23T13:32:07.942Z,5.67
2018-05-23T13:34:34.531Z,5.90
2018-05-23T13:37:01.176Z,5.40
2018-05-23T13:39:27.822Z,5.40
2018-05-23T13:41:54.414Z,4.87
2018-05-23T13:44:21.004Z,5.27
2018-05-23T13:46:47.667Z,4.93
2018-05-23T13:49:14.275Z,4.90
2018-05-23T13:51:40.911Z,5.23
2018-05-23T13:54:07.506Z,4.60
2018-05-23T13:56:34.252Z,4.80
2018-05-23T13:59:00.885Z,4.80
2018-05-23T14:01:27.562Z,5.03
2018-05-23T14:03:54.523Z,5.13
2018-05-23T14:06:21.967Z,5.33
2018-05-23T14:08:48.831Z,5.07
2018-05-23T14:11:15.489Z,5.00
2018-05-23T14:13:42.119Z,5.10
2018-05-23T14:16:08.730Z,5.43
2018-05-23T14:18:35.327Z,5.40
2018-05-23T14:21:01.909Z,5.20
2018-05-23T14:23:28.619Z,5.00
2018-05-23T14:25:55.263Z,4.60
2018-05-23T14:28:21.914Z,4.77
2018-05-23T14:30:48.505Z,4.23
2018-05-23T14:33:15.090Z,4.77
2018-05-23T14:35:41.819Z,4.50
2018-05-23T14:38:08.364Z,4.30
2018-05-23T14:40:34.994Z,4.20
2018-05-23T14:43:01.681Z,4.50
2018-05-23T14:45:28.409Z,4.70
2018-05-23T14:47:55.008Z,4.73
2018-05-23T14:50:21.614Z,4.80
2018-05-23T14:52:48.233Z,5.20
2018-05-23T14:55:14.897Z,4.20
2018-05-23T14:57:41.499Z,4.23
2018-05-23T15:00:10.028Z,3.57
2018-05-23T15:02:36.783Z,3.90
2018-05-23T15:05:03.427Z,3.63
2018-05-23T15:07:30.069Z,3.70
2018-05-23T15:09:56.673Z,3.63
2018-05-23T15:12:23.294Z,3.90
2018-05-23T15:14:50.040Z,3.93
2018-05-23T15:17:16.794Z,4.90
2018-05-23T15:19:43.441Z,4.77
2018-05-23T15:22:10.234Z,4.50
2018-05-23T15:24:36.816Z,5.00
2018-05-23T15:27:03.558Z,5.40
2018-05-23T15:29:30.164Z,5.50
2018-05-23T15:31:56.876Z,5.30
2018-05-23T15:34:23.636Z,5.30
2018-05-23T15:36:50.313Z,5.13
2018-05-23T15:39:16.952Z,5.83
2018-05-23T15:41:46.231Z,6.70
2018-05-23T15:44:13.173Z,6.90
2018-05-23T15:46:40.153Z,7.40
2018-05-23T15:49:06.913Z,7.10
2018-05-23T15:51:33.554Z,7.27
2018-05-23T15:54:00.179Z,7.77
2018-05-23T15:56:26.784Z,8.00
2018-05-23T15:58:53.450Z,6.73
2018-05-23T16:01:20.227Z,7.17
2018-05-23T16:03:47.093Z,7.10
2018-05-23T16:06:13.668Z,7.17
2018-05-23T16:08:40.312Z,7.40
2018-05-23T16:11:06.908Z,7.20
2018-05-23T16:13:33.572Z,8.20
2018-05-23T16:16:00.298Z,7.20
2018-05-23T16:18:27.242Z,8.00
2018-05-23T16:20:53.815Z,8.53
2018-05-23T16:23:20.464Z,8.30
2018-05-23T16:25:47.132Z,8.50
2018-05-23T16:28:13.773Z,9.17
2018-05-23T16:30:40.405Z,8.43
2018-05-23T16:33:07.016Z,9.20
2018-05-23T16:35:33.648Z,7.43
2018-05-23T16:38:00.291Z,8.30
2018-05-23T16:40:27.090Z,9.37
2018-05-23T16:42:53.698Z,8.37
2018-05-23T16:45:20.408Z,8.10
2018-05-23T16:47:47.084Z,7.30
2018-05-23T16:50:13.827Z,8.33
2018-05-23T16:52:40.473Z,8.00
2018-05-23T16:55:08.205Z,7.43
2018-05-23T16:57:34.921Z,8.03
2018-05-23T17:00:01.560Z,7.37
2018-05-23T17:02:28.157Z,7.70
2018-05-23T17:04:54.741Z,8.00
2018-05-23T17:07:21.371Z,8.20
2018-05-23T17:09:48.035Z,8.13
2018-05-23T17:12:14.650Z,7.73
2018-05-23T17:14:41.278Z,8.43
2018-05-23T17:17:07.899Z,8.30
2018-05-23T17:19:34.520Z,9.90
2018-05-23T17:22:01.181Z,9.63
2018-05-23T17:24:28.027Z,9.53
2018-05-23T17:26:54.660Z,9.40
2018-05-23T17:29:21.289Z,8.37
2018-05-23T17:31:47.947Z,8.57
2018-05-23T17:34:14.566Z,8.63
2018-05-23T17:36:41.226Z,8.57
2018-05-23T17:39:07.850Z,8.27
2018-05-23T17:41:34.496Z,8.40
2018-05-23T17:44:01.098Z,9.03
2018-05-23T17:46:27.810Z,7.83
2018-05-23T17:48:54.450Z,8.60
2018-05-23T17:51:22.194Z,9.20
2018-05-23T17:53:48.849Z,9.00
2018-05-23T17:56:15.435Z,9.60
2018-05-23T17:58:42.179Z,8.40
2018-05-23T18:01:08.811Z,8.43
2018-05-23T18:03:35.435Z,8.67
2018-05-23T18:06:02.129Z,8.70
2018-05-23T18:08:28.763Z,8.47
2018-05-23T18:10:55.590Z,8.20
2018-05-23T18:13:22.432Z,7.70
2018-05-23T18:15:49.057Z,8.80
2018-05-23T18:18:15.688Z,8.00
2018-05-23T18:20:42.282Z,7.80
2018-05-23T18:23:08.989Z,8.67
2018-05-23T18:25:36.031Z,9.63
2018-05-23T18:28:02.745Z,8.23
2018-05-23T18:30:29.372Z,7.83
2018-05-23T18:32:56.259Z,8.10
2018-05-23T18:35:23.161Z,8.87
2018-05-23T18:37:49.759Z,7.90
2018-05-23T18:40:25.188Z,7.53
2018-05-23T18:42:51.771Z,7.00
2018-05-23T18:45:18.419Z,8.07
2018-05-23T18:47:45.055Z,8.47
2018-05-23T18:50:11.747Z,7.80
2018-05-23T18:52:38.357Z,7.63
2018-05-23T18:55:05.376Z,7.73
2018-05-23T18:57:32.041Z,7.63
2018-05-23T18:59:58.702Z,9.13
2018-05-23T19:02:25.310Z,8.30
2018-05-23T19:04:51.945Z,8.23
2018-05-23T19:07:18.603Z,8.23
2018-05-23T19:09:45.354Z,7.77
2018-05-23T19:12:11.992Z,7.60
2018-05-23T19:14:38.615Z,8.43
2018-05-23T19:17:05.578Z,7.47
2018-05-23T19:19:32.343Z,7.90
2018-05-23T19:21:59.005Z,7.63
2018-05-23T19:24:25.649Z,8.10
2018-05-23T19:26:52.382Z,7.50
2018-05-23T19:29:19.042Z,6.60
2018-05-23T19:31:45.791Z,6.90
2018-05-23T19:34:12.484Z,7.20
2018-05-23T19:36:39.114Z,8.20
2018-05-23T19:39:06.294Z,7.20
2018-05-23T19:41:32.956Z,7.70
2018-05-23T19:43:59.638Z,7.63
2018-05-23T19:46:26.337Z,7.27
2018-05-23T19:48:52.941Z,7.43
2018-05-23T19:51:19.621Z,7.50
2018-05-23T19:53:47.330Z,9.00
2018-05-23T19:56:13.922Z,8.30
2018-05-23T19:58:40.538Z,8.00
2018-05-23T20:01:07.145Z,8.03
2018-05-23T20:03:33.773Z,8.43
2018-05-23T20:06:00.409Z,7.83
2018-05-23T20:08:27.073Z,7.47
2018-05-23T20:10:53.993Z,7.90
2018-05-23T20:13:20.624Z,7.20
2018-05-23T20:15:47.261Z,7.63
2018-05-23T20:18:14.012Z,7.00
2018-05-23T20:20:40.658Z,7.60
2018-05-23T20:23:07.277Z,7.03
2018-05-23T20:25:33.951Z,7.97
2018-05-23T20:28:00.930Z,7.27
2018-05-23T20:30:27.565Z,6.40
2018-05-23T20:32:54.167Z,6.80
2018-05-23T20:35:20.931Z,7.83
2018-05-23T20:37:48.135Z,7.67
2018-05-23T20:40:15.167Z,7.10
2018-05-23T20:42:41.954Z,7.47
2018-05-23T20:45:08.869Z,6.53
2018-05-23T20:47:37.035Z,6.90
2018-05-23T20:50:03.673Z,6.10
2018-05-23T20:52:30.274Z,7.00
2018-05-23T20:54:56.955Z,6.90
2018-05-23T20:57:23.586Z,6.50
2018-05-23T20:59:50.205Z,7.40
2018-05-23T21:02:16.840Z,6.97
2018-05-23T21:04:43.454Z,6.73
2018-05-23T21:07:10.084Z,8.03
2018-05-23T21:09:36.894Z,7.70
2018-05-23T21:12:03.499Z,7.90
2018-05-23T21:14:30.093Z,7.67
2018-05-23T21:16:56.763Z,7.60
2018-05-23T21:19:23.429Z,8.07
2018-05-23T21:21:50.020Z,8.40
2018-05-23T21:24:16.849Z,8.13
2018-05-23T21:26:43.431Z,7.77
2018-05-23T21:29:10.056Z,8.33
2018-05-23T21:31:36.648Z,8.20
2018-05-23T21:34:03.244Z,8.13
2018-05-23T21:36:29.903Z,7.97
2018-05-23T21:38:56.517Z,8.10
2018-05-23T21:41:23.132Z,8.03
2018-05-23T21:43:49.783Z,8.47
2018-05-23T21:46:16.373Z,8.60
2018-05-23T21:48:43.008Z,8.20
2018-05-23T21:51:09.599Z,8.67
2018-05-23T21:53:36.214Z,8.67
2018-05-23T21:56:02.914Z,8.77
2018-05-23T21:58:29.542Z,8.10
2018-05-23T22:00:56.141Z,7.67
2018-05-23T22:03:22.720Z,9.27
2018-05-23T22:05:49.338Z,8.70
2018-05-23T22:08:15.993Z,9.27
2018-05-23T22:10:42.639Z,9.03
2018-05-23T22:13:09.287Z,8.90
2018-05-23T22:15:36.041Z,8.60
2018-05-23T22:18:02.857Z,9.23
2018-05-23T22:20:29.515Z,8.67
2018-05-23T22:22:56.326Z,10.40
2018-05-23T22:25:22.923Z,8.77
2018-05-23T22:27:49.541Z,9.10
2018-05-23T22:30:16.209Z,8.77
2018-05-23T22:32:42.718Z,9.90
2018-05-23T22:35:09.334Z,10.13
2018-05-23T22:37:35.924Z,8.30
2018-05-23T22:40:02.530Z,8.67
2018-05-23T22:42:29.142Z,9.50
2018-05-23T22:44:55.750Z,8.57
2018-05-23T22:47:22.367Z,9.40
2018-05-23T22:49:48.962Z,9.80
2018-05-23T22:52:15.578Z,8.90
2018-05-23T22:54:42.191Z,9.23
2018-05-23T22:57:08.812Z,9.97
2018-05-23T22:59:35.413Z,9.50
2018-05-23T23:02:02.023Z,9.80
2018-05-23T23:04:28.624Z,9.70
2018-05-23T23:06:55.243Z,9.67
2018-05-23T23:09:21.851Z,9.87
2018-05-23T23:11:48.521Z,9.80
2018-05-23T23:14:15.130Z,9.80
2018-05-23T23:16:41.743Z,10.00
2018-05-23T23:19:08.342Z,8.97
2018-05-23T23:21:34.953Z,10.60
2018-05-23T23:24:01.560Z,9.90
2018-05-23T23:26:28.180Z,9.60
2018-05-23T23:28:54.748Z,9.70
2018-05-23T23:31:21.349Z,9.90
2018-05-23T23:33:47.951Z,9.33
2018-05-23T23:36:14.560Z,9.70
2018-05-23T23:38:41.161Z,10.30
2018-05-23T23:41:07.779Z,11.40
2018-05-23T23:43:34.369Z,9.80
2018-05-23T23:46:00.970Z,9.73
2018-05-23T23:48:27.597Z,10.77
2018-05-23T23:50:54.236Z,10.07
2018-05-23T23:53:20.834Z,10.47
2018-05-23T23:55:47.437Z,11.70
2018-05-23T23:58:14.049Z,10.40
